Time;durP1;ratioP1;P1;durP2;ratioP2;P2;SDS_P1;SDS_P2;PMS_P1;PMS_P2;Temp;Humidity;BMP_temperature;BMP_pressure;BME280_temperature;BME280_humidity;BME280_pressure;Samples;Min_cycle;Max_cycle;Signal;HPM_P1;HPM_P2
2021/04/05 00:00:08;;;;;;;10.63;9.63;;;4.50;99.90;;;;;;5047660;28;20490;-78
2021/04/05 00:02:35;;;;;;;11.10;9.90;;;4.50;99.90;;;;;;5043569;28;20453;-78
2021/04/05 00:05:01;;;;;;;13.40;9.83;;;4.40;99.90;;;;;;5050242;28;20441;-77
2021/04/05 00:07:28;;;;;;;14.73;9.57;;;4.40;99.90;;;;;;5051766;28;20942;-77
2021/04/05 00:09:54;;;;;;;11.30;10.20;;;4.40;99.90;;;;;;5046327;28;20439;-78
2021/04/05 00:12:20;;;;;;;11.00;9.97;;;4.40;99.90;;;;;;5049737;28;20476;-77
2021/04/05 00:14:47;;;;;;;10.63;9.60;;;4.40;99.90;;;;;;5048131;28;20448;-77
2021/04/05 00:17:14;;;;;;;11.37;10.20;;;4.30;99.90;;;;;;5051425;28;20946;-77
2021/04/05 00:19:41;;;;;;;11.57;9.77;;;4.30;99.90;;;;;;5050078;28;20446;-77
2021/04/05 00:22:07;;;;;;;13.40;9.67;;;4.20;99.90;;;;;;5049114;28;20861;-77
2021/04/05 00:24:34;;;;;;;11.13;9.90;;;4.10;99.90;;;;;;5049677;28;20440;-77
2021/04/05 00:27:00;;;;;;;12.87;9.90;;;4.10;99.90;;;;;;5050139;28;20450;-77
2021/04/05 00:29:26;;;;;;;9.80;8.90;;;4.10;99.90;;;;;;5050171;28;20440;-78
2021/04/05 00:31:53;;;;;;;12.27;9.33;;;4.00;99.90;;;;;;5050909;28;20515;-78
2021/04/05 00:34:20;;;;;;;10.10;9.17;;;4.00;99.90;;;;;;5048452;28;20934;-77
2021/04/05 00:36:46;;;;;;;9.63;8.73;;;4.00;99.90;;;;;;5045959;28;20437;-77
2021/04/05 00:39:13;;;;;;;10.13;9.23;;;3.90;99.90;;;;;;5050976;28;20855;-78
2021/04/05 00:41:40;;;;;;;10.20;9.20;;;3.90;99.90;;;;;;5052022;28;20473;-78
2021/04/05 00:44:07;;;;;;;9.23;8.40;;;3.80;99.90;;;;;;5055472;28;20433;-78
2021/04/05 00:46:34;;;;;;;10.03;9.10;;;3.80;99.90;;;;;;5052284;28;20823;-77
2021/04/05 00:49:01;;;;;;;11.40;9.23;;;3.80;99.90;;;;;;5053530;28;20439;-77
2021/04/05 00:51:28;;;;;;;9.67;8.73;;;3.80;99.90;;;;;;5052199;28;21075;-77
2021/04/05 00:53:56;;;;;;;9.87;8.87;;;3.80;99.90;;;;;;5046949;28;20841;-77
2021/04/05 00:56:26;;;;;;;11.10;10.00;;;3.70;99.90;;;;;;5053181;28;20451;-77
2021/04/05 00:58:53;;;;;;;9.47;8.57;;;3.60;99.90;;;;;;5055070;28;20447;-77
2021/04/05 01:01:23;;;;;;;11.03;9.73;;;3.60;99.90;;;;;;5051096;28;20460;-78
2021/04/05 01:03:52;;;;;;;12.63;10.27;;;3.50;99.90;;;;;;5052800;28;20433;-78
2021/04/05 01:06:22;;;;;;;9.83;8.90;;;3.50;99.90;;;;;;5054665;28;20432;-78
2021/04/05 01:08:49;;;;;;;11.00;9.87;;;3.50;99.90;;;;;;5053659;28;20466;-78
2021/04/05 01:11:19;;;;;;;11.13;9.97;;;3.50;99.90;;;;;;5053591;28;20456;-78
2021/04/05 01:13:47;;;;;;;13.83;9.97;;;3.50;99.90;;;;;;5046485;28;20476;-77
2021/04/05 01:16:13;;;;;;;10.27;9.23;;;3.50;99.90;;;;;;5053827;28;20440;-76
2021/04/05 01:18:40;;;;;;;9.90;9.00;;;3.50;99.90;;;;;;5049794;28;20432;-77
2021/04/05 01:21:08;;;;;;;10.17;9.17;;;3.50;99.90;;;;;;5049705;28;20550;-79
2021/04/05 01:23:36;;;;;;;10.53;8.90;;;3.50;99.90;;;;;;5044830;28;20446;-78
2021/04/05 01:26:03;;;;;;;10.20;9.20;;;3.50;99.90;;;;;;5053875;28;20426;-77
2021/04/05 01:28:30;;;;;;;10.20;9.17;;;3.60;99.90;;;;;;5054454;28;20806;-77
2021/04/05 01:30:58;;;;;;;10.50;9.50;;;3.50;99.90;;;;;;5054449;28;20434;-77
2021/04/05 01:33:29;;;;;;;12.30;9.90;;;3.50;99.90;;;;;;5044760;28;20501;-78
2021/04/05 01:35:57;;;;;;;12.87;9.87;;;3.50;99.90;;;;;;5051708;28;20463;-77
2021/04/05 01:38:25;;;;;;;10.93;9.50;;;3.50;99.90;;;;;;5048097;28;20466;-77
2021/04/05 01:40:54;;;;;;;10.83;9.73;;;3.50;99.90;;;;;;5048158;28;20429;-77
2021/04/05 01:43:21;;;;;;;11.90;10.67;;;3.40;99.90;;;;;;5046473;23;20490;-78
2021/04/05 01:45:48;;;;;;;10.70;9.67;;;3.50;99.90;;;;;;5017562;28;20450;-79
2021/04/05 01:48:14;;;;;;;10.90;9.93;;;3.40;99.90;;;;;;5020587;28;20443;-78
2021/04/05 01:50:42;;;;;;;10.97;9.83;;;3.40;99.90;;;;;;5025704;28;20441;-78
2021/04/05 01:53:09;;;;;;;10.83;9.83;;;3.50;99.90;;;;;;5032115;28;20481;-78
2021/04/05 01:55:36;;;;;;;11.03;9.93;;;3.50;99.90;;;;;;5015711;28;20450;-78
2021/04/05 01:58:05;;;;;;;11.37;9.63;;;3.40;99.90;;;;;;5015101;28;20436;-78
2021/04/05 02:00:37;;;;;;;11.03;9.90;;;3.40;99.90;;;;;;5017046;28;20432;-78
2021/04/05 02:03:09;;;;;;;10.30;9.33;;;3.40;99.90;;;;;;5016344;28;20539;-78
2021/04/05 02:05:38;;;;;;;13.03;9.73;;;3.30;99.90;;;;;;5015173;28;20443;-78
2021/04/05 02:08:05;;;;;;;10.40;8.93;;;3.30;99.90;;;;;;5021790;28;20468;-79
2021/04/05 02:10:32;;;;;;;10.60;9.60;;;3.30;99.90;;;;;;5018134;28;20833;-78
2021/04/05 02:12:59;;;;;;;11.20;10.10;;;3.30;99.90;;;;;;5026318;28;20460;-79
2021/04/05 02:15:27;;;;;;;10.30;9.40;;;3.30;99.90;;;;;;5013597;28;20446;-78
2021/04/05 02:17:54;;;;;;;10.17;9.27;;;3.20;99.90;;;;;;5018551;28;20468;-78
2021/04/05 02:20:21;;;;;;;10.77;9.77;;;3.20;99.90;;;;;;5016695;28;20498;-78
2021/04/05 02:22:49;;;;;;;10.53;9.53;;;3.20;99.90;;;;;;5023922;28;20480;-78
2021/04/05 02:25:18;;;;;;;11.20;10.13;;;3.20;99.90;;;;;;5008939;28;20451;-78
2021/04/05 02:27:45;;;;;;;11.60;8.87;;;3.20;99.90;;;;;;5008633;28;20451;-78
2021/04/05 02:30:22;;;;;;;11.23;9.90;;;3.20;99.90;;;;;;5008602;28;20979;-78
2021/04/05 02:32:51;;;;;;;12.10;9.33;;;3.30;99.90;;;;;;5023116;28;20461;-78
2021/04/05 02:35:18;;;;;;;11.97;9.07;;;3.20;99.90;;;;;;5010678;28;20429;-82
2021/04/05 02:37:44;;;;;;;11.60;9.70;;;3.20;99.90;;;;;;5012698;28;20444;-78
2021/04/05 02:40:12;;;;;;;11.43;9.50;;;3.20;99.90;;;;;;5019725;28;20445;-78
2021/04/05 02:42:39;;;;;;;9.87;8.93;;;3.20;99.90;;;;;;5022555;28;20502;-83
2021/04/05 02:45:07;;;;;;;11.80;9.10;;;3.20;99.90;;;;;;5013159;28;20459;-82
2021/04/05 02:47:34;;;;;;;10.03;9.10;;;3.20;99.90;;;;;;5009705;28;20979;-83
2021/04/05 02:50:04;;;;;;;11.50;10.40;;;3.20;99.90;;;;;;5030355;28;20451;-83
2021/04/05 02:52:33;;;;;;;10.90;9.87;;;3.20;99.90;;;;;;5025399;28;20455;-84
2021/04/05 02:55:00;;;;;;;10.73;9.67;;;3.20;99.90;;;;;;5019072;28;20480;-85
2021/04/05 02:57:26;;;;;;;11.50;10.30;;;3.20;99.90;;;;;;5017674;28;20459;-81
2021/04/05 02:59:53;;;;;;;10.50;9.60;;;3.20;99.90;;;;;;5017037;28;20972;-81
2021/04/05 03:02:20;;;;;;;10.53;9.53;;;3.10;99.90;;;;;;5016117;28;20478;-82
2021/04/05 03:04:48;;;;;;;10.17;9.17;;;3.20;99.90;;;;;;5017757;28;20444;-82
2021/04/05 03:07:16;;;;;;;10.80;9.80;;;3.20;99.90;;;;;;5022292;28;20824;-82
2021/04/05 03:09:42;;;;;;;10.07;9.17;;;3.10;99.90;;;;;;5019180;28;20941;-82
2021/04/05 03:12:10;;;;;;;10.63;9.73;;;3.10;99.90;;;;;;5021339;28;20463;-82
2021/04/05 03:14:42;;;;;;;10.33;9.43;;;3.00;99.90;;;;;;5022291;28;20441;-82
2021/04/05 03:17:09;;;;;;;11.03;9.63;;;3.00;99.90;;;;;;5019192;28;20664;-82
2021/04/05 03:19:39;;;;;;;10.67;9.67;;;2.90;99.90;;;;;;5020172;28;20975;-82
2021/04/05 03:22:06;;;;;;;10.60;9.60;;;2.90;99.90;;;;;;5018591;28;20850;-82
2021/04/05 03:24:36;;;;;;;10.60;9.67;;;2.80;99.90;;;;;;5017762;28;20478;-81
2021/04/05 03:27:06;;;;;;;10.30;9.27;;;2.90;99.90;;;;;;5025767;28;20458;-82
2021/04/05 03:29:36;;;;;;;10.03;9.20;;;2.80;99.90;;;;;;5016908;28;20535;-81
2021/04/05 03:32:06;;;;;;;9.97;9.00;;;2.80;99.90;;;;;;5018858;28;20985;-79
2021/04/05 03:34:35;;;;;;;10.40;9.30;;;2.90;99.90;;;;;;5018763;28;20431;-79
2021/04/05 03:37:07;;;;;;;9.73;8.77;;;2.80;99.90;;;;;;5012937;28;20428;-79
2021/04/05 03:39:35;;;;;;;9.93;8.73;;;2.80;99.90;;;;;;5011408;28;20455;-79
2021/04/05 03:42:08;;;;;;;12.23;9.00;;;2.90;99.90;;;;;;4999098;28;20476;-79
2021/04/05 03:44:41;;;;;;;11.87;8.97;;;2.90;99.90;;;;;;5004187;28;20441;-79
2021/04/05 03:47:14;;;;;;;10.10;9.10;;;2.90;99.90;;;;;;5015209;28;20441;-79
2021/04/05 03:49:49;;;;;;;13.10;9.87;;;2.80;99.90;;;;;;5001516;28;20458;-79
2021/04/05 03:52:23;;;;;;;15.37;10.53;;;2.80;99.90;;;;;;4999910;28;20475;-79
2021/04/05 03:54:53;;;;;;;17.23;10.13;;;2.70;99.90;;;;;;4998505;28;20445;-78
2021/04/05 03:57:22;;;;;;;11.33;9.83;;;2.70;99.90;;;;;;5004601;28;20478;-79
2021/04/05 03:59:53;;;;;;;10.40;9.40;;;2.70;99.90;;;;;;5001211;28;20438;-77
2021/04/05 04:02:22;;;;;;;10.80;9.50;;;2.60;99.90;;;;;;5016443;28;20481;-79
2021/04/05 04:04:56;;;;;;;10.70;9.50;;;2.70;99.90;;;;;;4999631;28;20450;-79
2021/04/05 04:07:29;;;;;;;10.23;9.10;;;2.80;99.90;;;;;;5004704;28;20437;-79
2021/04/05 04:09:58;;;;;;;10.27;9.27;;;2.80;99.90;;;;;;5014760;28;20838;-79
2021/04/05 04:12:25;;;;;;;9.20;8.33;;;2.80;99.90;;;;;;5000625;28;20482;-78
2021/04/05 04:14:53;;;;;;;10.53;9.43;;;2.80;99.90;;;;;;5009663;28;20430;-83
2021/04/05 04:17:21;;;;;;;9.13;8.23;;;2.80;99.90;;;;;;5033060;28;20465;-84
2021/04/05 04:19:48;;;;;;;9.60;7.90;;;2.80;99.90;;;;;;5020967;28;20557;-84
2021/04/05 04:22:15;;;;;;;9.43;8.50;;;2.80;99.90;;;;;;5024768;28;20508;-85
2021/04/05 04:24:42;;;;;;;9.20;8.30;;;2.90;99.90;;;;;;5014977;28;20446;-85
2021/04/05 04:27:13;;;;;;;9.63;8.63;;;2.80;99.90;;;;;;5034721;28;20461;-85
2021/04/05 04:29:40;;;;;;;11.13;8.73;;;2.80;99.90;;;;;;5023080;28;20507;-79
2021/04/05 04:32:07;;;;;;;9.63;8.63;;;2.80;99.90;;;;;;5027306;28;20455;-80
2021/04/05 04:34:35;;;;;;;9.50;8.50;;;2.90;99.90;;;;;;5016851;28;20530;-80
2021/04/05 04:37:02;;;;;;;9.30;8.33;;;2.80;99.90;;;;;;5022230;28;20462;-79
2021/04/05 04:39:30;;;;;;;9.10;8.20;;;2.90;99.90;;;;;;5022262;28;20853;-80
2021/04/05 04:41:56;;;;;;;8.57;7.77;;;2.90;99.90;;;;;;5021652;28;20527;-80
2021/04/05 04:44:23;;;;;;;10.17;8.33;;;3.00;99.90;;;;;;5021816;28;20465;-79
2021/04/05 04:46:50;;;;;;;9.77;8.97;;;3.00;99.90;;;;;;5017512;28;20432;-81
2021/04/05 04:49:16;;;;;;;9.47;8.67;;;3.10;99.90;;;;;;5024073;28;20443;-80
2021/04/05 04:51:42;;;;;;;10.87;9.53;;;3.20;99.90;;;;;;5014478;28;20470;-80
2021/04/05 04:54:10;;;;;;;9.53;8.77;;;3.30;99.90;;;;;;5024737;28;20432;-80
2021/04/05 04:56:38;;;;;;;9.80;9.00;;;3.30;99.90;;;;;;5022603;28;20478;-79
2021/04/05 04:59:06;;;;;;;8.13;7.33;;;3.30;99.90;;;;;;5018835;28;20445;-81
2021/04/05 05:01:35;;;;;;;5.93;4.57;;;3.40;99.90;;;;;;5013534;28;20473;-81
2021/04/05 05:04:05;;;;;;;5.40;4.40;;;3.50;99.90;;;;;;5010771;28;20473;-82
2021/04/05 05:06:51;;;;;;;7.17;4.53;;;3.60;99.90;;;;;;4999231;28;21125;-79
2021/04/05 05:09:19;;;;;;;6.77;4.53;;;3.70;99.90;;;;;;5016111;28;20454;-82
2021/04/05 05:11:46;;;;;;;8.20;7.50;;;3.80;99.90;;;;;;5015613;28;20555;-82
2021/04/05 05:14:15;;;;;;;8.33;7.53;;;3.90;99.90;;;;;;5020450;28;20513;-82
2021/04/05 05:16:43;;;;;;;7.73;7.00;;;4.00;99.90;;;;;;5019206;28;20451;-82
2021/04/05 05:19:10;;;;;;;7.43;6.73;;;4.10;99.90;;;;;;5017867;28;20467;-81
2021/04/05 05:21:43;;;;;;;8.40;7.03;;;4.20;99.90;;;;;;5013887;28;20456;-81
2021/04/05 05:24:14;;;;;;;8.13;7.33;;;4.30;99.90;;;;;;5012846;28;20518;-80
2021/04/05 05:26:43;;;;;;;9.70;8.70;;;4.30;99.90;;;;;;5028044;28;20487;-82
2021/04/05 05:29:11;;;;;;;8.90;8.20;;;4.40;99.90;;;;;;5023125;28;20505;-81
2021/04/05 05:31:39;;;;;;;7.73;7.03;;;4.50;99.90;;;;;;5018107;28;21306;-81
2021/04/05 05:34:08;;;;;;;7.27;6.57;;;4.60;99.90;;;;;;5020165;28;20200;-80
2021/04/05 05:36:36;;;;;;;6.87;6.13;;;4.70;99.90;;;;;;5014993;28;20455;-80
2021/04/05 05:39:03;;;;;;;9.13;6.70;;;4.80;99.90;;;;;;5026372;28;20196;-81
2021/04/05 05:41:44;;;;;;;7.23;6.57;;;4.90;99.90;;;;;;5016622;28;20657;-81
2021/04/05 05:44:18;;;;;;;6.80;6.20;;;5.10;99.90;;;;;;5022567;28;20437;-81
2021/04/05 05:46:49;;;;;;;7.33;6.63;;;5.20;99.90;;;;;;5023694;28;20629;-81
2021/04/05 05:49:26;;;;;;;8.10;6.57;;;5.40;99.90;;;;;;5022522;28;20457;-81
2021/04/05 05:52:07;;;;;;;7.03;6.20;;;5.50;99.90;;;;;;5017601;28;20223;-82
2021/04/05 05:54:50;;;;;;;7.73;6.37;;;5.70;99.90;;;;;;5014778;28;20208;-82
2021/04/05 05:57:28;;;;;;;8.53;7.20;;;5.80;99.90;;;;;;5015621;28;20192;-77
2021/04/05 06:00:04;;;;;;;8.80;7.90;;;5.90;99.90;;;;;;5020310;28;20201;-80
2021/04/05 06:02:51;;;;;;;9.00;8.10;;;6.10;99.90;;;;;;5020066;28;20216;-84
2021/04/05 06:05:37;;;;;;;10.13;9.23;;;6.20;99.90;;;;;;5017297;28;20205;-84
2021/04/05 06:08:22;;;;;;;9.53;8.77;;;6.30;99.90;;;;;;5013124;28;20193;-79
2021/04/05 06:10:56;;;;;;;8.77;7.90;;;6.40;99.90;;;;;;5008087;28;20208;-79
2021/04/05 06:13:41;;;;;;;8.20;7.60;;;6.50;99.90;;;;;;5015306;28;20214;-82
2021/04/05 06:16:16;;;;;;;8.17;7.47;;;6.70;99.90;;;;;;5012978;28;20260;-82
2021/04/05 06:18:56;;;;;;;8.10;7.50;;;6.80;99.90;;;;;;5004268;28;20662;-81
2021/04/05 06:21:35;;;;;;;7.93;7.23;;;7.00;99.90;;;;;;5010818;28;20203;-80
2021/04/05 06:24:08;;;;;;;8.03;7.43;;;7.10;99.90;;;;;;5010198;28;20223;-81
2021/04/05 06:26:46;;;;;;;8.10;7.50;;;7.20;99.90;;;;;;5008872;28;20217;-81
2021/04/05 06:29:20;;;;;;;7.70;7.00;;;7.30;99.90;;;;;;5007305;28;20253;-80
2021/04/05 06:32:05;;;;;;;7.90;7.30;;;7.50;99.90;;;;;;5014776;28;20223;-81
2021/04/05 06:34:48;;;;;;;7.43;6.80;;;7.50;99.90;;;;;;5019702;28;20726;-83
2021/04/05 06:37:25;;;;;;;8.50;7.80;;;7.60;99.90;;;;;;5017790;28;20203;-81
2021/04/05 06:39:57;;;;;;;8.27;7.57;;;7.70;99.90;;;;;;5010049;28;20269;-82
2021/04/05 06:43:09;;;;;;;8.67;7.60;;;7.80;99.90;;;;;;5016842;28;20230;-81
2021/04/05 06:45:56;;;;;;;8.03;7.33;;;8.00;99.90;;;;;;4994138;28;20207;-82
2021/04/05 06:48:58;;;;;;;9.07;7.67;;;8.20;99.90;;;;;;5018181;28;20195;-82
2021/04/05 06:51:40;;;;;;;8.23;7.50;;;8.30;99.90;;;;;;5018923;28;20684;-83
2021/04/05 06:54:34;;;;;;;7.63;6.97;;;8.50;99.90;;;;;;5016340;28;20701;-81
2021/04/05 06:57:11;;;;;;;7.53;6.83;;;8.70;99.90;;;;;;5019701;28;20199;-82
2021/04/05 06:59:50;;;;;;;7.60;7.10;;;8.90;99.90;;;;;;5023244;28;20193;-83
2021/04/05 07:02:49;;;;;;;6.50;5.50;;;9.00;99.90;;;;;;5019096;28;20365;-83
2021/04/05 07:05:28;;;;;;;6.83;5.00;;;9.10;99.90;;;;;;5015229;28;20207;-83
2021/04/05 07:08:01;;;;;;;5.60;5.10;;;9.20;99.90;;;;;;5014015;28;20204;-82
2021/04/05 07:10:32;;;;;;;6.03;5.43;;;9.20;99.90;;;;;;5019464;28;20216;-82
2021/04/05 07:13:05;;;;;;;8.20;5.63;;;9.30;99.90;;;;;;5029669;28;20223;-83
2021/04/05 07:15:48;;;;;;;7.37;5.90;;;9.30;99.90;;;;;;5020018;28;20196;-83
2021/04/05 07:18:24;;;;;;;7.40;5.07;;;9.40;99.90;;;;;;5027190;28;20266;-83
2021/04/05 07:21:12;;;;;;;5.97;5.27;;;9.50;99.90;;;;;;5020779;28;20223;-82
2021/04/05 07:23:52;;;;;;;5.93;4.57;;;9.60;99.90;;;;;;5030506;28;20223;-82
2021/04/05 07:26:24;;;;;;;8.73;5.87;;;9.80;99.90;;;;;;5021838;28;20207;-83
2021/04/05 07:28:59;;;;;;;6.80;4.80;;;10.00;99.90;;;;;;5025370;28;20201;-83
2021/04/05 07:31:38;;;;;;;6.93;4.40;;;10.10;99.90;;;;;;5029599;28;20214;-82
2021/04/05 07:34:19;;;;;;;8.60;4.47;;;10.20;99.90;;;;;;5014202;28;20647;-83
2021/04/05 07:36:49;;;;;;;5.37;4.33;;;10.30;99.90;;;;;;5013696;28;20219;-83
2021/04/05 07:39:24;;;;;;;9.17;4.73;;;10.70;99.90;;;;;;5013060;28;20204;-83
2021/04/05 07:41:53;;;;;;;5.73;5.13;;;11.20;99.90;;;;;;5047780;23;20232;-76
2021/04/05 07:44:32;;;;;;;5.07;3.77;;;11.80;99.60;;;;;;5047159;28;20214;-79
2021/04/05 07:47:08;;;;;;;4.93;4.43;;;12.40;99.10;;;;;;5061688;28;20200;-77
2021/04/05 07:49:46;;;;;;;6.70;3.87;;;12.90;99.30;;;;;;5041540;28;20197;-77
2021/04/05 07:52:21;;;;;;;7.07;4.00;;;13.20;97.70;;;;;;5038957;28;20287;-79
2021/04/05 07:54:49;;;;;;;7.73;3.57;;;13.50;96.80;;;;;;5020635;28;20635;-79
2021/04/05 07:57:24;;;;;;;5.03;3.57;;;13.60;95.90;;;;;;5028073;28;20209;-77
2021/04/05 07:59:58;;;;;;;9.20;3.97;;;14.10;94.40;;;;;;5031222;28;20206;-77
2021/04/05 08:02:36;;;;;;;4.77;3.03;;;14.50;93.50;;;;;;5025972;28;20245;-78
2021/04/05 08:05:14;;;;;;;10.47;5.20;;;14.90;93.80;;;;;;5029087;28;20210;-77
2021/04/05 08:07:56;;;;;;;8.57;6.13;;;14.80;92.60;;;;;;5020988;28;20198;-78
2021/04/05 08:10:46;;;;;;;7.30;6.60;;;15.00;91.80;;;;;;5028508;28;20219;-77
2021/04/05 08:13:22;;;;;;;9.90;6.53;;;15.10;92.40;;;;;;5032405;28;20207;-78
2021/04/05 08:15:59;;;;;;;8.07;6.17;;;15.30;91.80;;;;;;5025765;28;20199;-77
2021/04/05 08:18:32;;;;;;;9.43;6.30;;;15.40;91.40;;;;;;5032612;28;20205;-79
2021/04/05 08:21:06;;;;;;;9.10;6.20;;;15.50;90.90;;;;;;5028440;28;20271;-79
2021/04/05 08:23:42;;;;;;;9.37;6.00;;;15.60;91.10;;;;;;5027818;28;20210;-80
2021/04/05 08:26:22;;;;;;;6.87;6.17;;;15.60;90.50;;;;;;5032690;28;20257;-79
2021/04/05 08:29:02;;;;;;;8.73;5.80;;;15.90;90.40;;;;;;5030322;28;20207;-79
2021/04/05 08:31:56;;;;;;;7.33;5.50;;;16.10;89.80;;;;;;5031163;28;20196;-79
2021/04/05 08:34:51;;;;;;;7.00;5.67;;;16.30;90.10;;;;;;5031294;28;20195;-79
2021/04/05 08:37:22;;;;;;;9.27;7.00;;;16.50;88.20;;;;;;5024590;28;20193;-79
2021/04/05 08:40:01;;;;;;;7.57;6.77;;;16.30;87.60;;;;;;5031515;28;20642;-79
2021/04/05 08:42:33;;;;;;;8.27;6.80;;;16.00;87.40;;;;;;5029180;28;20253;-78
2021/04/05 08:45:09;;;;;;;9.17;6.10;;;16.00;88.80;;;;;;5024769;28;20233;-81
2021/04/05 08:47:38;;;;;;;9.13;7.23;;;16.20;89.20;;;;;;5023761;28;20575;-80
2021/04/05 08:50:09;;;;;;;10.40;7.10;;;16.30;87.70;;;;;;5018853;28;20658;-82
2021/04/05 08:52:39;;;;;;;7.77;6.97;;;16.20;88.00;;;;;;5036571;28;20692;-80
2021/04/05 08:55:07;;;;;;;7.53;6.80;;;16.20;87.10;;;;;;5028068;28;20207;-80
2021/04/05 08:58:09;;;;;;;8.63;6.40;;;16.20;88.00;;;;;;5012467;28;20204;-86
2021/04/05 09:00:47;;;;;;;7.60;6.83;;;15.90;88.20;;;;;;5012012;28;20616;-78
2021/04/05 09:03:22;;;;;;;7.40;6.70;;;15.80;88.40;;;;;;5027780;28;20210;-78
2021/04/05 09:05:50;;;;;;;7.80;6.50;;;15.90;89.20;;;;;;5034137;28;20205;-78
2021/04/05 09:08:20;;;;;;;7.80;6.53;;;15.80;89.10;;;;;;5038810;28;20200;-78
2021/04/05 09:10:50;;;;;;;7.93;6.93;;;15.70;89.20;;;;;;5030792;28;20241;-79
2021/04/05 09:13:19;;;;;;;10.13;6.53;;;15.70;90.00;;;;;;5026859;28;20214;-79
2021/04/05 09:16:19;;;;;;;6.87;6.17;;;15.50;88.90;;;;;;5007373;28;20664;-79
2021/04/05 09:19:16;;;;;;;8.37;6.60;;;15.40;90.10;;;;;;5018188;28;20203;-78
2021/04/05 09:22:16;;;;;;;7.30;6.60;;;15.30;90.40;;;;;;5020136;28;20205;-78
2021/04/05 09:25:33;;;;;;;8.37;6.73;;;15.10;90.10;;;;;;5013939;28;20190;-78
2021/04/05 09:28:08;;;;;;;10.17;7.30;;;14.90;90.80;;;;;;4962533;28;20213;-78
2021/04/05 09:31:19;;;;;;;8.47;6.80;;;14.90;90.90;;;;;;4976085;28;20588;-78
2021/04/05 09:34:17;;;;;;;8.70;5.70;;;14.80;91.00;;;;;;4990593;28;20232;-78
2021/04/05 09:37:22;;;;;;;9.63;5.00;;;14.70;91.10;;;;;;5016736;28;20199;-79
2021/04/05 09:40:20;;;;;;;9.97;5.50;;;14.70;90.50;;;;;;5019625;28;20500;-78
2021/04/05 09:43:16;;;;;;;7.87;4.90;;;14.70;90.60;;;;;;5024187;28;20220;-79
2021/04/05 09:45:44;;;;;;;10.20;5.50;;;14.60;90.90;;;;;;5012972;28;20265;-78
2021/04/05 09:48:36;;;;;;;12.40;5.03;;;14.50;91.10;;;;;;5033533;28;20296;-79
2021/04/05 09:51:33;;;;;;;6.90;4.87;;;14.30;90.80;;;;;;5024183;28;20243;-78
2021/04/05 09:54:10;;;;;;;8.47;5.47;;;14.10;91.60;;;;;;5022638;28;20250;-78
2021/04/05 09:56:42;;;;;;;7.93;5.33;;;14.00;91.60;;;;;;5016786;28;20298;-79
2021/04/05 09:59:11;;;;;;;8.33;5.60;;;13.90;91.70;;;;;;5027782;28;20192;-79
2021/04/05 10:01:40;;;;;;;8.40;5.93;;;13.70;92.00;;;;;;5032965;28;20199;-78
2021/04/05 10:04:10;;;;;;;9.67;6.60;;;13.80;92.20;;;;;;5031465;28;20226;-78
2021/04/05 10:06:39;;;;;;;8.43;6.77;;;13.70;92.40;;;;;;5018978;28;20262;-78
2021/04/05 10:09:07;;;;;;;8.47;7.00;;;13.70;92.40;;;;;;5032324;28;20202;-78
2021/04/05 10:11:37;;;;;;;9.27;7.13;;;13.60;92.40;;;;;;5030837;28;20207;-78
2021/04/05 10:14:06;;;;;;;12.23;6.93;;;13.40;92.40;;;;;;5025319;28;20223;-78
2021/04/05 10:16:35;;;;;;;9.30;7.20;;;13.30;92.50;;;;;;5036249;28;20204;-77
2021/04/05 10:19:09;;;;;;;10.33;7.37;;;13.20;92.90;;;;;;5032475;28;20611;-77
2021/04/05 10:21:37;;;;;;;10.10;7.37;;;13.10;93.00;;;;;;5022156;28;20203;-77
2021/04/05 10:24:07;;;;;;;9.27;7.07;;;13.10;93.20;;;;;;5028505;28;20375;-77
2021/04/05 10:26:35;;;;;;;11.53;6.67;;;13.20;93.00;;;;;;5036012;28;20234;-80
2021/04/05 10:29:04;;;;;;;9.53;8.00;;;13.20;93.20;;;;;;5024917;28;20617;-78
2021/04/05 10:31:31;;;;;;;8.57;7.73;;;13.10;93.20;;;;;;5034886;28;20586;-77
2021/04/05 10:34:02;;;;;;;9.10;7.60;;;13.20;93.70;;;;;;5031712;28;20218;-79
2021/04/05 10:36:35;;;;;;;8.23;7.43;;;13.20;93.80;;;;;;5029431;28;20234;-77
2021/04/05 10:39:03;;;;;;;11.77;7.80;;;13.20;93.20;;;;;;5031507;28;20211;-78
2021/04/05 10:41:31;;;;;;;13.50;7.33;;;13.10;93.40;;;;;;5030975;28;20190;-79
2021/04/05 10:44:04;;;;;;;10.43;7.53;;;13.10;93.60;;;;;;5029604;28;20289;-78
2021/04/05 10:46:34;;;;;;;8.57;7.50;;;13.10;93.50;;;;;;5030543;28;20454;-78
2021/04/05 10:49:05;;;;;;;9.03;6.70;;;13.20;94.10;;;;;;5023657;28;20203;-78
2021/04/05 10:51:33;;;;;;;10.13;7.73;;;13.10;94.00;;;;;;5028267;28;20188;-79
2021/04/05 10:54:03;;;;;;;9.90;7.80;;;13.10;93.80;;;;;;5022167;28;20228;-78
2021/04/05 10:56:34;;;;;;;9.43;7.40;;;13.20;93.70;;;;;;5005961;28;20198;-79
2021/04/05 10:59:08;;;;;;;14.37;8.93;;;13.20;93.60;;;;;;5004831;28;20201;-78
2021/04/05 11:01:41;;;;;;;13.30;8.33;;;13.10;93.30;;;;;;5000249;28;20250;-79
2021/04/05 11:04:09;;;;;;;11.50;7.87;;;13.00;93.60;;;;;;4998259;28;20222;-79
2021/04/05 11:06:36;;;;;;;10.73;7.83;;;13.20;93.50;;;;;;5011524;28;20235;-80
2021/04/05 11:09:08;;;;;;;9.97;7.57;;;13.30;93.70;;;;;;5010210;28;20188;-77
2021/04/05 11:11:37;;;;;;;12.33;8.57;;;13.50;93.40;;;;;;5020123;28;20200;-79
2021/04/05 11:14:05;;;;;;;10.87;7.47;;;13.50;93.00;;;;;;5021280;28;20220;-78
2021/04/05 11:16:33;;;;;;;13.83;7.67;;;13.50;93.30;;;;;;5028456;28;20230;-78
2021/04/05 11:19:03;;;;;;;7.83;6.93;;;13.60;93.60;;;;;;5029722;28;20208;-78
2021/04/05 11:21:36;;;;;;;11.27;7.77;;;13.60;93.40;;;;;;5020409;28;20203;-78
2021/04/05 11:24:07;;;;;;;8.03;7.20;;;13.50;93.20;;;;;;5029206;28;20243;-77
2021/04/05 11:26:36;;;;;;;8.43;7.60;;;13.60;93.00;;;;;;5044365;28;20221;-78
2021/04/05 11:29:05;;;;;;;12.60;7.90;;;13.60;92.70;;;;;;5024197;28;20226;-78
2021/04/05 11:31:36;;;;;;;11.00;7.17;;;13.50;93.00;;;;;;5032152;28;20566;-79
2021/04/05 11:34:03;;;;;;;11.53;7.00;;;13.60;92.60;;;;;;5031139;28;20234;-79
2021/04/05 11:36:35;;;;;;;10.37;7.23;;;13.60;92.30;;;;;;5026645;28;20199;-78
2021/04/05 11:39:08;;;;;;;8.13;7.33;;;13.60;92.70;;;;;;5028523;28;20202;-77
2021/04/05 11:41:35;;;;;;;8.83;7.10;;;13.60;92.60;;;;;;5023913;28;20203;-79
2021/04/05 11:44:05;;;;;;;9.43;7.47;;;13.60;93.00;;;;;;5033031;28;20654;-78
2021/04/05 11:46:36;;;;;;;8.43;7.60;;;13.70;92.70;;;;;;5024453;28;20364;-78
2021/04/05 11:49:07;;;;;;;7.60;6.60;;;13.70;92.50;;;;;;5034371;28;20206;-79
2021/04/05 11:51:39;;;;;;;11.53;7.30;;;13.70;92.20;;;;;;5025832;28;20233;-78
2021/04/05 11:54:12;;;;;;;9.10;7.57;;;13.70;92.30;;;;;;5024845;28;20241;-78
2021/04/05 11:56:45;;;;;;;8.43;7.63;;;13.70;92.40;;;;;;5020871;28;20199;-80
2021/04/05 11:59:18;;;;;;;10.53;7.97;;;13.80;92.30;;;;;;5028428;28;20196;-79
2021/04/05 12:01:54;;;;;;;8.97;6.97;;;13.80;92.20;;;;;;5030128;28;20195;-79
2021/04/05 12:04:24;;;;;;;9.50;6.50;;;13.90;92.30;;;;;;5023547;28;20191;-80
2021/04/05 12:06:58;;;;;;;8.57;7.00;;;14.00;92.10;;;;;;5021086;28;20211;-79
2021/04/05 12:09:29;;;;;;;8.77;6.90;;;14.10;91.90;;;;;;5019672;28;20193;-78
2021/04/05 12:12:02;;;;;;;9.40;6.83;;;14.00;90.30;;;;;;5027519;28;20196;-78
2021/04/05 12:14:30;;;;;;;6.90;6.10;;;14.00;90.60;;;;;;5027004;28;20242;-78
2021/04/05 12:17:00;;;;;;;10.30;5.67;;;14.10;90.50;;;;;;5027169;28;20195;-80
2021/04/05 12:19:30;;;;;;;6.97;5.30;;;14.10;88.60;;;;;;5033171;28;20232;-80
2021/04/05 12:21:58;;;;;;;6.80;4.73;;;14.20;89.70;;;;;;5023423;28;20283;-79
2021/04/05 12:24:28;;;;;;;9.27;4.70;;;14.30;89.40;;;;;;5021746;28;20200;-79
2021/04/05 12:26:57;;;;;;;6.40;4.80;;;14.20;89.60;;;;;;5028732;28;20204;-77
2021/04/05 12:29:25;;;;;;;5.73;4.50;;;14.20;89.50;;;;;;5031407;28;20218;-77
2021/04/05 12:31:54;;;;;;;8.23;5.30;;;14.20;89.10;;;;;;5028191;28;20523;-77
2021/04/05 12:34:25;;;;;;;7.57;5.17;;;14.20;89.10;;;;;;5032806;28;20235;-79
2021/04/05 12:36:52;;;;;;;8.07;4.53;;;14.10;88.80;;;;;;5021602;28;20203;-80
2021/04/05 12:39:19;;;;;;;7.20;4.93;;;13.90;90.20;;;;;;5035449;28;20211;-78
2021/04/05 12:41:49;;;;;;;8.10;4.67;;;13.90;90.60;;;;;;5033002;28;20660;-80
2021/04/05 12:44:24;;;;;;;6.53;5.10;;;13.90;90.20;;;;;;5032402;28;20574;-79
2021/04/05 12:46:53;;;;;;;8.47;5.80;;;13.90;89.20;;;;;;5032965;28;20214;-78
2021/04/05 12:49:22;;;;;;;11.07;5.67;;;13.70;89.90;;;;;;5033365;28;20192;-80
2021/04/05 12:51:54;;;;;;;8.03;5.47;;;13.70;90.10;;;;;;5034185;28;20195;-79
2021/04/05 12:54:23;;;;;;;11.07;5.83;;;13.50;89.80;;;;;;5032286;28;20207;-78
2021/04/05 12:56:53;;;;;;;7.63;5.40;;;13.40;90.60;;;;;;5022733;28;20196;-78
2021/04/05 12:59:27;;;;;;;7.63;5.50;;;13.20;91.00;;;;;;5030158;28;20192;-79
2021/04/05 13:01:55;;;;;;;9.70;6.30;;;13.10;91.30;;;;;;5007742;28;20221;-78
2021/04/05 13:04:24;;;;;;;9.50;6.40;;;12.80;91.20;;;;;;5019612;28;20222;-79
2021/04/05 13:06:56;;;;;;;11.77;4.90;;;12.70;91.20;;;;;;5028490;28;20273;-78
2021/04/05 13:09:25;;;;;;;9.23;6.00;;;12.60;90.90;;;;;;5030420;28;20210;-77
2021/04/05 13:11:55;;;;;;;8.27;6.20;;;12.50;91.30;;;;;;5022146;28;20201;-77
2021/04/05 13:14:27;;;;;;;11.47;6.30;;;12.40;91.50;;;;;;5025797;28;20218;-79